FKYS

Details ICAO FKYS (NSI)
Name YAOUNDE NSIMALEN
Region Cameroon
Timezone Africa/Douala (UTC+1.0)
Plans Departing 85
Arriving 95
Stats Elevation 2,278 ft / 694 m (AMSL)
Location 3.722550° 11.553300°
Runways 1
Magnetic Variation 0.588° W
Sunrise 2018-10-20 04:59:04 UTC / 2018-10-20 05:59:04 Local
Sunset 2018-10-20 17:00:26 UTC / 2018-10-20 18:00:26 Local
Advertisement - Login to hide

Runways

ID Width Length Bearing (true/mag) Surface Threshold Overrun Markings Lighting
01 148 ft / 45 m 11,220 ft / 3,420 m 9.87° / 10.46° ASPHALT 0 ft / 0 m 200 ft / 61 m APP EDGE THRESHOLD
19 148 ft / 45 m 11,220 ft / 3,420 m 189.87° / 190.46° ASPHALT 0 ft / 0 m 200 ft / 61 m APP EDGE THRESHOLD MALS

Map

Weather


0- 5 10 15 20 25 30 35+ Temperature / °C

Clouds and Precipitation
Forecast for 2018-10-20 06:00 UTC. Updated 4 hours ago

Ground ~20,000 ft ~40,000 ft Winds

METAR

FKYS 200800Z /////KT 6000 BKN011 25/22 Q1016 NOSIG

TAF

TAF FKYS 200500Z 2006/2106 VRB05KT 0600 FG FEW003 BKN006 BECMG 2006/2008 8000 NSW BKN016 TEMPO 2014/2020 TS BKN013 FEW016CB BECMG 2020/2022 BKN006

Frequencies

Tower 119.10 MHz
Approach 121.30 MHz
Warning: Do not use this data for real-world aviation or navigation. No guarantee of current accuracy is given.